Station info - map view · info · telemetry · weather · raw · status · beacons · messages · bulletins · browse · moving · my account
Callsign, ship name or locator: Clear       
It is possible to search using wildcards (*?) after a prefix. Example: OH*
APRS station VA7MME - show graphs
Map loading...
Mic-E message: In service
Location: 53°55.62' N 122°38.29' W - locator CO83QW32KL - show map - static map
4.7 miles East bearing 81° from Prince George, British Columbia, Canada [?]
56.5 miles East bearing 96° from Vanderhoof, British Columbia, Canada
64.3 miles North bearing 355° from Quesnel, British Columbia, Canada
Last position: 2018-09-07 13:23:18 EDT (11d 47m ago)
2018-09-07 10:23:18 PDT local time at Prince George, Canada [?]
Altitude: 2224 ft
Course: 69°
Speed: 61 MPH
Last telemetry: 2017-09-02 17:55:43 EDT (380d 20h14m ago) – show telemetry
Ch 1: 396, Ch 2: 656, Ch 3: 0, Ch 4: 0, Ch 5: 0
 1     2     3     4     5     6     7     8 
Device: Kenwood: TM-D710 (rig)
Last path: VA7MME>U3UUVR via GEORGE-13,WIDE1,VEDAN,NIMPO,WIDE2*,qAR,ATNRKO (good)
Positions stored: 261260
Other SSIDs: VA7MME-12 VA7MME-5
Stations near current position of VA7MME - show more
callsign distance last heard - EDT      callsign distance last heard - EDT
VE7GSF3.5 miles 194°2018-09-16 21:37:53 VE7EQU-114.1 miles 259°2018-09-18 12:27:17
VA7XAR-R4.4 miles 254°2018-09-15 01:46:46 VA7XAR-DP4.4 miles 254°2018-09-13 21:57:32
VA7XAR B4.4 miles 254°2018-08-28 17:44:03 VA7XAR-B4.4 miles 254°2018-08-28 17:44:13
VA7XAR4.4 miles 254°2018-08-31 22:00:29 VA7XAR4.4 miles 254°2018-09-04 23:15:35
VA7XAR-104.4 miles 254°2018-08-26 19:28:34 M1ABC-H04.6 miles 255°2018-08-25 17:00:35
VE7PGB-54.6 miles 258°2018-09-15 13:56:11 VA7RC4.9 miles 265°2018-09-16 21:55:28
VA7MME5.2 miles 253°2018-08-24 12:31:26 VE7PGB-95.2 miles 258°2018-09-17 20:40:39
VA7RC-75.3 miles 255°2018-08-27 22:11:17 VE7MK5.3 miles 259°2018-09-05 12:02:14
CARNEY5.6 miles 250°2018-09-18 14:07:01 VA7VB5.6 miles 258°2018-09-18 10:27:12
VA7VB-126.0 miles 256°2018-09-11 19:11:36 VA7EBB6.1 miles 255°2018-09-16 17:50:21
Stations which heard VA7MME directly on radio –
callsign pkts first heard - EDT last heard longest (tx => rx) longest at - EDT
VE7RKA 4 2018-09-01 18:36:06 2018-09-01 19:06:24 CO91FC > CO90QO 52.9 miles 129° 2018-09-01 19:02:44
VE7MKF-1 2 2018-09-01 14:33:37 2018-09-01 15:37:31 CN89UA > CN89PC 22.3 miles 284° 2018-09-01 15:37:31
VE7SLC-7 2 2018-09-01 10:46:48 2018-09-01 10:48:35 CN88HK > CN88HM 3.1 miles 359° 2018-09-01 10:46:48
OTTER 1 2018-09-01 14:47:30 2018-09-01 14:47:30 CN89RC > CN89RB 2.7 miles 203° 2018-09-01 14:47:30
DOGMTN 18 2018-09-01 16:26:37 2018-09-01 17:09:19 CN99HQ > CN99FJ 20.9 miles 198° 2018-09-01 17:09:19
SSI 1 2018-09-01 11:58:57 2018-09-01 11:58:57 CN88HQ > CN88GT 9.1 miles 347° 2018-09-01 11:58:57
SUNPKS 6 2018-09-01 18:25:11 2018-09-01 19:36:57 CO91IO > DO00AV 76.7 miles 128° 2018-09-01 19:36:57
VE7RBP 1 2018-09-01 19:33:03 2018-09-01 19:33:03 CO91HM > CO91XN 56.2 miles 88° 2018-09-01 19:33:03
THYNNE 12 2018-09-01 17:14:54 2018-09-01 18:26:11 CO90HP > CN99MQ 66.3 miles 164° 2018-09-01 18:26:11
VE7PKE 2 2018-09-01 14:17:23 2018-09-01 14:19:23 CN89NF > CN89NE 1.6 miles 168° 2018-09-01 14:19:23
VE7ECC 2 2018-09-01 14:49:29 2018-09-01 14:51:30 CN89SC > CN89SB 2.8 miles 148° 2018-09-01 14:49:29
MILBRN 31 2018-09-01 21:15:12 2018-09-06 19:27:14 CO84PA > CO83PA 68.4 miles 180° 2018-09-02 14:17:40
TABOR 27 2018-09-01 23:24:15 2018-09-07 12:49:13 CO93BV > CO83SW 22.7 miles 276° 2018-09-04 08:40:36
VEDAN 3 2018-09-01 20:25:09 2018-09-01 21:44:49 CO82SO > CO81GM 85.0 miles 210° 2018-09-01 21:44:49
VE7ZIO-10 4 2018-09-01 14:26:57 2018-09-01 14:39:30 CN89PE > CN89RF 8.2 miles 58° 2018-09-01 14:28:05
LDYSMH 1 2018-09-01 10:57:35 2018-09-01 10:57:35 CN88HO > CN89CA 35.1 miles 327° 2018-09-01 10:57:35
VE7WNK-2 15 2018-09-01 22:04:29 2018-09-01 22:19:47 CO82SW > CO82SX 3.9 miles 326° 2018-09-01 22:04:29
AF7DX-1 5 2018-08-31 22:23:51 2018-09-01 11:03:17 CN88GQ > CN88KB 44.6 miles 159° 2018-09-01 11:03:17
GEORGE-13 26 2018-09-01 22:40:50 2018-09-07 13:23:18 CO84PB > CO83TP 32.8 miles 150° 2018-09-02 13:45:48
VA7BLD-12 1 2018-09-01 11:03:43 2018-09-01 11:03:43 CN88GQ > CN78WU 35.5 miles 289° 2018-09-01 11:03:43
VA7HXD 1 2018-08-31 22:30:29 2018-08-31 22:30:29 CN88HK > CN88GK 5.0 miles 286° 2018-08-31 22:30:29
VE7VIC-14 16 2018-08-31 22:25:59 2018-09-01 10:51:35 CN88HM > CN88FK 9.1 miles 232° 2018-09-01 10:51:35
MORFEE 1 2018-09-03 22:55:10 2018-09-03 22:55:10 CO83SW > CO85LK 104.7 miles 348° 2018-09-03 22:55:10
VA7GFZ 11 2018-09-01 13:51:51 2018-09-01 16:16:27 CN99CD > CN89OE 42.9 miles 275° 2018-09-01 16:16:27
VE7CUS 4 2018-09-01 13:57:39 2018-09-01 14:45:29 CN89RC > CN89KB 25.1 miles 262° 2018-09-01 14:45:29
KF7DRV-3 3 2018-09-01 14:02:41 2018-09-01 15:20:09 CN89LB > CN88TU 34.5 miles 113° 2018-09-01 14:02:41
W7FEL 4 2018-08-31 22:22:31 2018-09-01 10:46:05 CN88HK > CN88DD 25.2 miles 213° 2018-09-01 10:46:05
VE7CXZ-1 2 2018-09-01 10:44:01 2018-09-01 10:44:52 CN88HK > CN88HK 0.6 miles 38° 2018-09-01 10:44:01
VE7RCK-10 40 2018-09-01 11:06:53 2018-09-01 16:34:07 CN88HQ > CN99BC 73.9 miles 66° 2018-09-01 11:06:53
N7NIX-6 1 2018-09-01 11:06:23 2018-09-01 11:06:23 CN88HQ > CN88NL 27.1 miles 121° 2018-09-01 11:06:23
WA7LA-10 2 2018-09-01 14:55:29 2018-09-01 14:58:01 CN89TB > CN88UQ 24.7 miles 174° 2018-09-01 14:55:29
VE7MXL 10 2018-09-01 14:01:59 2018-09-01 16:05:29 CN89XD > CN89NF 40.7 miles 278° 2018-09-01 16:05:29
VA7GVN-10 3 2018-09-01 14:08:33 2018-09-01 14:41:30 CN89LD > CN89OH 14.4 miles 36° 2018-09-01 14:08:33
SINKUT 2 2018-09-03 11:17:33 2018-09-03 11:18:07 CO83OU > CO83AT 47.7 miles 267° 2018-09-03 11:18:07

Only position packets which were originated by the station are shown here. The range statistics show some extra long hops, because some digipeaters do not correctly add themselves to the digipeater path. Please check the raw packets.
About this site
This page shows real-time information collected from the Automatic Position Reporting System Internet network (APRS-IS). APRS is used by amateur (ham) radio operators to transmit real-time position information, weather data, telemetry and messages over the radio. A vehicle equipped with a GPS receiver, a VHF transmitter or HF transceiver and a small computer device called a tracker transmits it's location, speed and course in a small data packet, which is then received by a nearby iGate receiving site which forwards the packet on the Internet. Systems connected to the Internet can send information on the APRS-IS without a radio transmitter, or collect and display information transmitted anywhere in the world.
FAQ · Blog · Discussion group · Linking to aprs.fi · AIS sites · Service status · Database statistics · Advertising on aprs.fi · Technical details · API · Change log · Planned changes · Credits and thanks · Terms Of Service · iPhone/iPad APRS